createdAt,value
2022-08-07T00:00:05.505Z,102318.82
2022-08-07T00:00:35.927Z,102320.88
2022-08-07T00:01:12.765Z,102321.72
2022-08-07T00:02:36.032Z,102321.24
2022-08-07T00:02:36.032Z,102319.06
2022-08-07T00:02:56.187Z,102318.55
2022-08-07T00:03:26.716Z,102322.10
2022-08-07T00:04:03.413Z,102318.03
2022-08-07T00:04:33.953Z,102318.36
2022-08-07T00:05:05.697Z,102317.53
2022-08-07T00:05:37.125Z,102320.91
2022-08-07T00:06:07.609Z,102317.38
2022-08-07T00:06:45.597Z,102315.19
2022-08-07T00:07:13.732Z,102317.23
2022-08-07T00:07:46.328Z,102315.72
2022-08-07T00:08:16.747Z,102314.86
2022-08-07T00:08:47.185Z,102319.62
2022-08-07T00:09:21.365Z,102315.23
2022-08-07T00:10:04.845Z,102318.09
2022-08-07T00:10:31.052Z,102319.93
2022-08-07T00:11:01.810Z,102317.89
2022-08-07T00:11:47.947Z,102317.57
2022-08-07T00:12:14.240Z,102315.56
2022-08-07T00:13:00.684Z,102318.20
2022-08-07T00:13:25.594Z,102317.70
2022-08-07T00:13:57.051Z,102318.89
2022-08-07T00:14:29.831Z,102319.19
2022-08-07T00:15:01.052Z,102319.89
2022-08-07T00:15:37.698Z,102321.97
2022-08-07T00:16:06.944Z,102320.60
2022-08-07T00:16:37.896Z,102318.06
2022-08-07T00:17:11.985Z,102323.34
2022-08-07T00:17:42.405Z,102320.48
2022-08-07T00:18:19.329Z,102321.52
2022-08-07T00:18:48.146Z,102321.84
2022-08-07T00:19:21.657Z,102327.92
2022-08-07T00:20:01.139Z,102326.91
2022-08-07T00:20:29.975Z,102328.59
2022-08-07T00:21:07.887Z,102329.06
2022-08-07T00:21:56.167Z,102326.50
2022-08-07T00:22:24.738Z,102325.84
2022-08-07T00:22:51.785Z,102322.47
2022-08-07T00:23:22.261Z,102325.00
2022-08-07T00:23:53.069Z,102326.39
2022-08-07T00:24:23.498Z,102321.62
2022-08-07T00:24:53.921Z,102322.98
2022-08-07T00:25:24.343Z,102326.23
2022-08-07T00:26:00.140Z,102323.83
2022-08-07T00:26:59.037Z,102322.97
2022-08-07T00:27:09.231Z,102328.09
2022-08-07T00:27:53.560Z,102323.86
2022-08-07T00:28:15.488Z,102326.05
2022-08-07T00:28:56.599Z,102325.88
2022-08-07T00:29:23.241Z,102322.52
2022-08-07T00:29:53.806Z,102323.20
2022-08-07T00:30:27.436Z,102322.34
2022-08-07T00:30:58.682Z,102320.82
2022-08-07T00:31:37.316Z,102318.14
2022-08-07T00:32:04.428Z,102316.27
2022-08-07T00:32:36.358Z,102319.47
2022-08-07T00:33:07.611Z,102318.83
2022-08-07T00:33:38.180Z,102319.33
2022-08-07T00:34:10.869Z,102318.47
2022-08-07T00:34:42.067Z,102318.47
2022-08-07T00:35:12.487Z,102318.14
2022-08-07T00:35:49.651Z,102316.75
2022-08-07T00:36:20.211Z,102316.27
2022-08-07T00:36:50.645Z,102316.95
2022-08-07T00:37:21.063Z,102315.11
2022-08-07T00:37:53.054Z,102317.49
2022-08-07T00:38:31.682Z,102315.64
2022-08-07T00:38:58.863Z,102311.75
2022-08-07T00:39:29.454Z,102313.48
2022-08-07T00:40:00.127Z,102312.12
2022-08-07T00:40:39.982Z,102315.30
2022-08-07T00:41:05.907Z,102314.00
2022-08-07T00:41:53.216Z,102313.30
2022-08-07T00:42:16.558Z,102314.49
2022-08-07T00:42:46.978Z,102314.52
2022-08-07T00:44:01.112Z,102314.88
2022-08-07T00:44:01.847Z,102315.41
2022-08-07T00:44:31.291Z,102315.20
2022-08-07T00:45:07.070Z,102316.53
2022-08-07T00:45:37.517Z,102317.20
2022-08-07T00:46:08.039Z,102312.80
2022-08-07T00:46:38.385Z,102317.22
2022-08-07T00:47:16.013Z,102313.17
2022-08-07T00:48:09.492Z,102310.79
2022-08-07T00:48:30.854Z,102315.02
2022-08-07T00:48:56.221Z,102313.29
2022-08-07T00:50:20.638Z,102312.98
2022-08-07T00:50:21.527Z,102311.12
2022-08-07T00:50:50.581Z,102307.22
2022-08-07T00:51:12.602Z,102310.96
2022-08-07T00:51:58.615Z,102311.98
2022-08-07T00:52:19.874Z,102310.43
2022-08-07T00:52:50.599Z,102308.26
2022-08-07T00:53:23.430Z,102311.47
2022-08-07T00:53:55.284Z,102308.81
2022-08-07T00:54:26.364Z,102308.28
2022-08-07T00:54:56.779Z,102311.98
2022-08-07T00:56:00.485Z,102307.09
2022-08-07T00:56:04.006Z,102308.28
2022-08-07T00:56:37.841Z,102309.45
2022-08-07T00:57:08.722Z,102310.80
2022-08-07T00:57:55.259Z,102310.46
2022-08-07T00:58:14.897Z,102308.95
2022-08-07T00:58:47.038Z,102309.63
2022-08-07T00:59:35.839Z,102311.33
2022-08-07T00:59:55.294Z,102306.11
2022-08-07T01:00:25.714Z,102312.33
2022-08-07T01:00:56.134Z,102310.34
2022-08-07T01:01:26.659Z,102309.64
2022-08-07T01:01:57.984Z,102312.16
2022-08-07T01:02:29.660Z,102311.86
2022-08-07T01:03:00.189Z,102315.73
2022-08-07T01:03:56.942Z,102312.89
2022-08-07T01:04:07.429Z,102315.42
2022-08-07T01:04:43.290Z,102314.23
2022-08-07T01:05:19.021Z,102312.05
2022-08-07T01:05:53.588Z,102317.64
2022-08-07T01:06:24.147Z,102315.27
2022-08-07T01:06:54.568Z,102313.75
2022-08-07T01:07:25.001Z,102315.42
2022-08-07T01:07:58.080Z,102314.23
2022-08-07T01:08:28.496Z,102315.07
2022-08-07T01:09:00.756Z,102314.73
2022-08-07T01:10:05.156Z,102314.06
2022-08-07T01:10:11.309Z,102315.38
2022-08-07T01:10:47.700Z,102307.62
2022-08-07T01:12:04.425Z,102310.16
2022-08-07T01:12:26.539Z,102310.97
2022-08-07T01:12:30.747Z,102309.97
2022-08-07T01:13:01.480Z,102309.96
2022-08-07T01:13:35.081Z,102309.30
2022-08-07T01:14:05.589Z,102311.18
2022-08-07T01:14:37.027Z,102311.00
2022-08-07T01:15:07.619Z,102309.14
2022-08-07T01:16:01.039Z,102312.70
2022-08-07T01:16:30.608Z,102308.14
2022-08-07T01:16:53.014Z,102310.16
2022-08-07T01:17:23.457Z,102311.70
2022-08-07T01:17:53.882Z,102310.02
2022-08-07T01:18:24.770Z,102311.38
2022-08-07T01:18:55.189Z,102313.21
2022-08-07T01:19:25.615Z,102312.67
2022-08-07T01:19:56.028Z,102311.98
2022-08-07T01:20:30.831Z,102313.69
2022-08-07T01:21:01.871Z,102311.31
2022-08-07T01:21:32.292Z,102311.98
2022-08-07T01:22:08.896Z,102316.09
2022-08-07T01:22:56.561Z,102311.69
2022-08-07T01:23:17.874Z,102314.55
2022-08-07T01:23:53.194Z,102310.36
2022-08-07T01:24:23.621Z,102311.53
2022-08-07T01:24:54.037Z,102310.69
2022-08-07T01:25:53.575Z,102311.51
2022-08-07T01:26:01.550Z,102309.64
2022-08-07T01:26:31.969Z,102311.52
2022-08-07T01:27:02.391Z,102309.83
2022-08-07T01:27:32.858Z,102309.16
2022-08-07T01:28:03.238Z,102308.63
2022-08-07T01:28:33.948Z,102309.69
2022-08-07T01:29:04.417Z,102309.00
2022-08-07T01:29:34.839Z,102309.17
2022-08-07T01:30:05.261Z,102308.16
2022-08-07T01:30:35.679Z,102302.57
2022-08-07T01:31:09.381Z,102302.06
2022-08-07T01:31:48.136Z,102306.47
2022-08-07T01:32:19.061Z,102302.77
2022-08-07T01:32:52.741Z,102305.47
2022-08-07T01:33:23.143Z,102306.66
2022-08-07T01:33:57.504Z,102305.82
2022-08-07T01:34:31.151Z,102301.44
2022-08-07T01:35:01.672Z,102305.50
2022-08-07T01:35:53.629Z,102304.84
2022-08-07T01:36:09.070Z,102303.83
2022-08-07T01:36:40.393Z,102303.66
2022-08-07T01:37:11.148Z,102304.12
2022-08-07T01:37:43.424Z,102304.14
2022-08-07T01:38:16.096Z,102304.15
2022-08-07T01:38:51.420Z,102307.19
2022-08-07T01:39:21.874Z,102308.03
2022-08-07T01:39:52.958Z,102306.01
2022-08-07T01:40:23.849Z,102308.52
2022-08-07T01:40:54.319Z,102306.20
2022-08-07T01:41:26.155Z,102304.12
2022-08-07T01:42:38.705Z,102304.86
2022-08-07T01:42:38.841Z,102303.81
2022-08-07T01:43:07.929Z,102305.55
2022-08-07T01:43:38.663Z,102306.71
2022-08-07T01:44:09.031Z,102303.52
2022-08-07T01:44:39.452Z,102302.00
2022-08-07T01:45:17.747Z,102303.50
2022-08-07T01:45:46.555Z,102304.54
2022-08-07T01:46:17.090Z,102300.48
2022-08-07T01:46:51.774Z,102299.45
2022-08-07T01:48:18.426Z,102305.22
2022-08-07T01:48:18.622Z,102300.97
2022-08-07T01:48:33.415Z,102304.55
2022-08-07T01:49:03.994Z,102308.59
2022-08-07T01:49:34.415Z,102306.69
2022-08-07T01:50:04.837Z,102309.54
2022-08-07T01:50:35.254Z,102308.38
2022-08-07T01:51:24.044Z,102310.59
2022-08-07T01:52:03.175Z,102308.58
2022-08-07T01:52:16.330Z,102311.81
2022-08-07T01:52:49.666Z,102308.97
2022-08-07T01:54:09.370Z,102313.52
2022-08-07T01:54:09.999Z,102313.86
2022-08-07T01:54:36.864Z,102313.70
2022-08-07T01:55:07.701Z,102311.84
2022-08-07T01:55:43.023Z,102313.53
2022-08-07T01:56:13.443Z,102315.03
2022-08-07T01:56:43.861Z,102314.84
2022-08-07T01:57:24.475Z,102315.15
2022-08-07T01:58:05.479Z,102314.52
2022-08-07T01:58:33.051Z,102314.67
2022-08-07T01:59:03.787Z,102312.66
2022-08-07T01:59:34.541Z,102315.03
2022-08-07T02:00:13.382Z,102312.66
2022-08-07T02:00:45.409Z,102311.98
2022-08-07T02:01:25.518Z,102313.17
2022-08-07T02:02:02.211Z,102314.02
2022-08-07T02:02:32.678Z,102311.16
2022-08-07T02:03:18.324Z,102312.81
2022-08-07T02:03:42.872Z,102311.97
2022-08-07T02:04:12.271Z,102312.47
2022-08-07T02:04:52.622Z,102307.59
2022-08-07T02:05:48.107Z,102309.46
2022-08-07T02:05:59.755Z,102310.11
2022-08-07T02:06:31.325Z,102311.64
2022-08-07T02:07:02.716Z,102315.48
2022-08-07T02:07:44.667Z,102310.30
2022-08-07T02:08:09.442Z,102310.32
2022-08-07T02:08:44.215Z,102310.52
2022-08-07T02:09:33.484Z,102313.56
2022-08-07T02:09:53.243Z,102312.20
2022-08-07T02:10:25.281Z,102310.18
2022-08-07T02:10:58.156Z,102309.00
2022-08-07T02:11:30.944Z,102307.30
2022-08-07T02:12:05.275Z,102309.29
2022-08-07T02:12:36.448Z,102309.14
2022-08-07T02:13:07.787Z,102309.14
2022-08-07T02:13:56.892Z,102311.51
2022-08-07T02:14:35.473Z,102306.44
2022-08-07T02:14:48.887Z,102309.99
2022-08-07T02:15:19.719Z,102311.00
2022-08-07T02:15:53.132Z,102308.63
2022-08-07T02:16:32.948Z,102308.11
2022-08-07T02:16:58.943Z,102307.62
2022-08-07T02:17:31.696Z,102311.36
2022-08-07T02:18:04.620Z,102309.33
2022-08-07T02:18:36.985Z,102310.51
2022-08-07T02:20:03.601Z,102308.33
2022-08-07T02:20:07.267Z,102308.30
2022-08-07T02:20:23.926Z,102307.81
2022-08-07T02:20:55.838Z,102304.75
2022-08-07T02:21:27.862Z,102305.77
2022-08-07T02:22:03.186Z,102307.30
2022-08-07T02:22:38.442Z,102305.08
2022-08-07T02:23:12.580Z,102308.97
2022-08-07T02:23:47.201Z,102305.76
2022-08-07T02:24:19.735Z,102305.25
2022-08-07T02:24:50.151Z,102303.94
2022-08-07T02:25:20.569Z,102305.62
2022-08-07T02:26:30.397Z,102302.45
2022-08-07T02:26:34.447Z,102306.44
2022-08-07T02:27:05.154Z,102308.48
2022-08-07T02:27:36.603Z,102304.98
2022-08-07T02:28:11.577Z,102303.11
2022-08-07T02:28:42.003Z,102305.66
2022-08-07T02:29:13.766Z,102307.00
2022-08-07T02:29:53.997Z,102311.20
2022-08-07T02:30:19.592Z,102309.05
2022-08-07T02:30:50.013Z,102305.63
2022-08-07T02:31:29.235Z,102309.48
2022-08-07T02:31:55.774Z,102310.83
2022-08-07T02:32:30.337Z,102311.70
2022-08-07T02:33:09.409Z,102311.20
2022-08-07T02:33:57.115Z,102312.55
2022-08-07T02:34:17.369Z,102307.69
2022-08-07T02:34:48.893Z,102310.36
2022-08-07T02:36:28.988Z,102306.49
2022-08-07T02:36:29.914Z,102308.50
2022-08-07T02:36:33.186Z,102309.88
2022-08-07T02:37:08.112Z,102307.65
2022-08-07T02:37:38.725Z,102308.52
2022-08-07T02:38:14.045Z,102308.19
2022-08-07T02:38:50.933Z,102308.04
2022-08-07T02:39:43.817Z,102308.56
2022-08-07T02:40:12.001Z,102307.90
2022-08-07T02:40:35.455Z,102308.23
2022-08-07T02:41:07.925Z,102309.55
2022-08-07T02:41:41.063Z,102306.88
2022-08-07T02:42:16.531Z,102308.89
2022-08-07T02:42:46.913Z,102309.89
2022-08-07T02:43:18.323Z,102309.75
2022-08-07T02:43:48.897Z,102309.88
2022-08-07T02:44:19.498Z,102311.23
2022-08-07T02:44:49.917Z,102309.22
2022-08-07T02:45:58.209Z,102310.72
2022-08-07T02:46:02.045Z,102309.03
2022-08-07T02:46:32.834Z,102311.06
2022-08-07T02:47:03.252Z,102312.62
2022-08-07T02:47:45.121Z,102310.38
2022-08-07T02:48:09.980Z,102308.52
2022-08-07T02:48:40.779Z,102309.89
2022-08-07T02:49:29.158Z,102305.14
2022-08-07T02:49:58.428Z,102308.39
2022-08-07T02:50:26.751Z,102312.58
2022-08-07T02:51:01.278Z,102308.39
2022-08-07T02:51:49.557Z,102309.06
2022-08-07T02:52:07.024Z,102308.09
2022-08-07T02:52:40.041Z,102309.47
2022-08-07T02:53:10.719Z,102305.75
2022-08-07T02:53:41.409Z,102306.27
2022-08-07T02:54:13.231Z,102308.12
2022-08-07T02:54:44.641Z,102304.74
2022-08-07T02:55:28.384Z,102307.44
2022-08-07T02:56:02.384Z,102307.91
2022-08-07T02:56:29.254Z,102305.70
2022-08-07T02:57:01.744Z,102304.55
2022-08-07T02:57:34.902Z,102303.05
2022-08-07T02:58:05.663Z,102304.22
2022-08-07T02:58:36.092Z,102301.84
2022-08-07T02:59:10.055Z,102303.72
2022-08-07T02:59:42.116Z,102301.18
2022-08-07T03:00:13.238Z,102299.83
2022-08-07T03:00:47.551Z,102303.84
2022-08-07T03:01:19.159Z,102299.63
2022-08-07T03:01:55.426Z,102300.14
2022-08-07T03:02:25.985Z,102300.64
2022-08-07T03:02:56.774Z,102301.50
2022-08-07T03:03:42.167Z,102303.36
2022-08-07T03:04:03.498Z,102299.50
2022-08-07T03:04:37.838Z,102297.64
2022-08-07T03:05:09.689Z,102299.65
2022-08-07T03:05:40.110Z,102300.67
2022-08-07T03:06:16.502Z,102302.88
2022-08-07T03:06:48.281Z,102297.64
2022-08-07T03:07:18.847Z,102301.84
2022-08-07T03:08:07.515Z,102300.02
2022-08-07T03:08:29.684Z,102301.70
2022-08-07T03:09:00.051Z,102298.64
2022-08-07T03:09:44.737Z,102306.05
2022-08-07T03:10:05.783Z,102305.37
2022-08-07T03:10:40.731Z,102304.55
2022-08-07T03:11:14.167Z,102308.28
2022-08-07T03:11:52.296Z,102304.55
2022-08-07T03:12:22.193Z,102303.41
2022-08-07T03:12:53.107Z,102305.59
2022-08-07T03:13:23.542Z,102308.46
2022-08-07T03:13:57.615Z,102306.26
2022-08-07T03:14:29.278Z,102304.58
2022-08-07T03:15:02.446Z,102306.25
2022-08-07T03:15:56.775Z,102305.25
2022-08-07T03:16:10.341Z,102304.24
2022-08-07T03:16:42.802Z,102300.03
2022-08-07T03:17:13.222Z,102303.75
2022-08-07T03:17:53.437Z,102302.93
2022-08-07T03:18:20.204Z,102303.59
2022-08-07T03:18:54.761Z,102303.78
2022-08-07T03:19:28.939Z,102303.95
2022-08-07T03:19:59.590Z,102303.45
2022-08-07T03:20:30.010Z,102303.45
2022-08-07T03:21:00.434Z,102304.96
2022-08-07T03:21:33.041Z,102304.30
2022-08-07T03:22:03.766Z,102305.66
2022-08-07T03:22:34.868Z,102303.27
2022-08-07T03:23:05.304Z,102305.76
2022-08-07T03:24:19.601Z,102303.45
2022-08-07T03:24:19.662Z,102303.78
2022-08-07T03:24:51.271Z,102306.32
2022-08-07T03:25:21.870Z,102308.83
2022-08-07T03:25:58.502Z,102307.77
2022-08-07T03:26:28.525Z,102309.82
2022-08-07T03:26:59.652Z,102308.80
2022-08-07T03:27:59.731Z,102311.31
2022-08-07T03:28:36.740Z,102306.27
2022-08-07T03:28:41.047Z,102312.36
2022-08-07T03:29:14.792Z,102307.84
2022-08-07T03:29:49.519Z,102309.50
2022-08-07T03:30:20.619Z,102311.83
2022-08-07T03:30:54.724Z,102311.31
2022-08-07T03:31:26.211Z,102311.53
2022-08-07T03:32:00.465Z,102307.31
2022-08-07T03:32:30.895Z,102310.16
2022-08-07T03:33:01.312Z,102306.95
2022-08-07T03:33:40.057Z,102308.17
2022-08-07T03:34:08.939Z,102309.34
2022-08-07T03:34:47.171Z,102310.66
2022-08-07T03:35:19.583Z,102305.81
2022-08-07T03:35:54.904Z,102309.02
2022-08-07T03:36:26.611Z,102307.33
2022-08-07T03:36:57.402Z,102307.19
2022-08-07T03:37:28.595Z,102308.86
2022-08-07T03:38:04.801Z,102302.29
2022-08-07T03:38:35.238Z,102307.70
2022-08-07T03:39:05.889Z,102305.66
2022-08-07T03:39:59.159Z,102307.39
2022-08-07T03:40:15.659Z,102309.08
2022-08-07T03:40:47.308Z,102307.39
2022-08-07T03:41:42.126Z,102308.40
2022-08-07T03:41:57.792Z,102308.73
2022-08-07T03:42:31.115Z,102311.09
2022-08-07T03:43:01.544Z,102312.08
2022-08-07T03:43:33.183Z,102310.91
2022-08-07T03:44:06.466Z,102315.84
2022-08-07T03:44:39.911Z,102315.15
2022-08-07T03:45:10.326Z,102312.62
2022-08-07T03:45:43.366Z,102315.80
2022-08-07T03:46:18.187Z,102311.41
2022-08-07T03:47:11.129Z,102314.58
2022-08-07T03:47:24.513Z,102310.52
2022-08-07T03:47:54.923Z,102312.84
2022-08-07T03:48:29.794Z,102311.73
2022-08-07T03:49:03.067Z,102313.09
2022-08-07T03:49:33.736Z,102309.70
2022-08-07T03:50:04.155Z,102307.70
2022-08-07T03:50:34.955Z,102309.89
2022-08-07T03:51:05.315Z,102312.08
2022-08-07T03:51:47.381Z,102312.61
2022-08-07T03:52:22.307Z,102314.64
2022-08-07T03:52:51.228Z,102314.12
2022-08-07T03:54:01.703Z,102315.30
2022-08-07T03:54:33.331Z,102317.70
2022-08-07T03:54:35.525Z,102313.83
2022-08-07T03:55:07.877Z,102311.42
2022-08-07T03:55:53.290Z,102313.64
2022-08-07T03:56:13.861Z,102311.93
2022-08-07T03:57:03.457Z,102315.80
2022-08-07T03:58:33.261Z,102312.44
2022-08-07T03:58:34.342Z,102320.58
2022-08-07T03:59:04.959Z,102316.40
2022-08-07T03:59:09.977Z,102313.53
2022-08-07T03:59:46.786Z,102315.20
2022-08-07T04:00:16.168Z,102317.08
2022-08-07T04:00:54.928Z,102320.30
2022-08-07T04:01:22.562Z,102320.28
2022-08-07T04:01:53.044Z,102314.20
2022-08-07T04:02:23.480Z,102318.23
2022-08-07T04:02:56.762Z,102319.40
2022-08-07T04:03:27.290Z,102319.56
2022-08-07T04:03:57.712Z,102315.68
2022-08-07T04:04:28.133Z,102320.07
2022-08-07T04:05:03.054Z,102322.31
2022-08-07T04:05:40.618Z,102318.89
2022-08-07T04:06:08.797Z,102318.20
2022-08-07T04:06:44.119Z,102313.79
2022-08-07T04:07:16.773Z,102318.38
2022-08-07T04:07:48.401Z,102317.20
2022-08-07T04:08:20.999Z,102319.76
2022-08-07T04:08:51.657Z,102315.17
2022-08-07T04:09:23.679Z,102314.52
2022-08-07T04:09:54.713Z,102316.40
2022-08-07T04:10:25.135Z,102318.09
2022-08-07T04:12:20.702Z,102321.64
2022-08-07T04:12:26.380Z,102323.67
2022-08-07T04:12:27.984Z,102319.12
2022-08-07T04:12:45.820Z,102316.39
2022-08-07T04:13:17.645Z,102319.11
2022-08-07T04:14:09.188Z,102315.22
2022-08-07T04:14:38.401Z,102322.32
2022-08-07T04:15:00.527Z,102315.89
2022-08-07T04:15:30.911Z,102317.90
2022-08-07T04:16:01.333Z,102315.89
2022-08-07T04:16:33.012Z,102310.99
2022-08-07T04:17:03.907Z,102316.06
2022-08-07T04:18:32.019Z,102314.69
2022-08-07T04:18:57.024Z,102319.41
2022-08-07T04:18:59.807Z,102316.91
2022-08-07T04:19:20.268Z,102314.19
2022-08-07T04:19:55.587Z,102316.56
2022-08-07T04:20:26.027Z,102315.22
2022-08-07T04:20:56.426Z,102317.76
2022-08-07T04:21:31.852Z,102314.38
2022-08-07T04:22:08.595Z,102318.59
2022-08-07T04:22:39.050Z,102319.77
2022-08-07T04:23:19.418Z,102315.73
2022-08-07T04:24:07.511Z,102326.07
2022-08-07T04:24:34.273Z,102323.91
2022-08-07T04:25:01.016Z,102323.39
2022-08-07T04:25:39.115Z,102321.20
2022-08-07T04:26:07.431Z,102317.80
2022-08-07T04:26:37.960Z,102320.98
2022-08-07T04:27:15.363Z,102318.94
2022-08-07T04:28:00.640Z,102321.33
2022-08-07T04:28:24.092Z,102318.96
2022-08-07T04:28:55.638Z,102323.16
2022-08-07T04:29:26.057Z,102327.23
2022-08-07T04:30:04.535Z,102319.45
2022-08-07T04:30:55.175Z,102324.38
2022-08-07T04:31:19.626Z,102325.73
2022-08-07T04:32:03.167Z,102322.54
2022-08-07T04:32:34.025Z,102326.58
2022-08-07T04:32:58.809Z,102322.37
2022-08-07T04:33:29.293Z,102328.24
2022-08-07T04:34:00.394Z,102325.54
2022-08-07T04:34:33.000Z,102319.47
2022-08-07T04:35:05.688Z,102318.78
2022-08-07T04:35:36.569Z,102323.03
2022-08-07T04:36:06.997Z,102326.11
2022-08-07T04:36:37.419Z,102322.73
2022-08-07T04:37:15.417Z,102327.73
2022-08-07T04:38:03.687Z,102321.12
2022-08-07T04:38:20.622Z,102321.98
2022-08-07T04:38:51.039Z,102323.84
2022-08-07T04:39:25.806Z,102327.92
2022-08-07T04:39:56.479Z,102330.14
2022-08-07T04:40:31.441Z,102328.80
2022-08-07T04:41:02.758Z,102328.23
2022-08-07T04:41:36.968Z,102329.58
2022-08-07T04:42:07.449Z,102326.58
2022-08-07T04:42:38.077Z,102328.94
2022-08-07T04:43:09.154Z,102330.00
2022-08-07T04:44:14.518Z,102329.17
2022-08-07T04:44:18.884Z,102330.88
2022-08-07T04:44:54.734Z,102327.98
2022-08-07T04:45:57.894Z,102329.86
2022-08-07T04:46:02.085Z,102329.02
2022-08-07T04:46:34.674Z,102329.15
2022-08-07T04:47:08.626Z,102324.45
2022-08-07T04:47:57.123Z,102328.00
2022-08-07T04:48:15.003Z,102330.38
2022-08-07T04:48:47.139Z,102327.33
2022-08-07T04:49:25.503Z,102327.62
2022-08-07T04:50:04.222Z,102329.98
2022-08-07T04:50:31.387Z,102330.52
2022-08-07T04:51:03.551Z,102330.67
2022-08-07T04:51:33.957Z,102330.84
2022-08-07T04:52:06.739Z,102329.50
2022-08-07T04:52:37.503Z,102330.66
2022-08-07T04:53:16.494Z,102330.50
2022-08-07T04:54:01.448Z,102331.00
2022-08-07T04:54:29.945Z,102333.19
2022-08-07T04:54:58.792Z,102333.16
2022-08-07T04:58:09.807Z,102336.23
2022-08-07T04:58:09.811Z,102334.33
2022-08-07T04:58:10.149Z,102332.68
2022-08-07T04:58:14.030Z,102336.55
2022-08-07T04:58:15.998Z,102333.30
2022-08-07T04:58:49.772Z,102336.87
2022-08-07T04:59:17.785Z,102332.50
2022-08-07T05:00:11.067Z,102334.50
2022-08-07T05:00:17.287Z,102334.50
2022-08-07T05:00:47.153Z,102330.12
2022-08-07T05:01:18.273Z,102334.84
2022-08-07T05:01:50.526Z,102331.98
2022-08-07T05:02:21.644Z,102330.80
2022-08-07T05:02:52.482Z,102334.38
2022-08-07T05:03:38.728Z,102334.33
2022-08-07T05:04:07.737Z,102330.64
2022-08-07T05:04:33.544Z,102332.16
2022-08-07T05:05:11.455Z,102330.61
2022-08-07T05:05:53.964Z,102331.80
2022-08-07T05:06:16.418Z,102333.99
2022-08-07T05:06:51.341Z,102333.53
2022-08-07T05:07:30.380Z,102333.86
2022-08-07T05:07:58.953Z,102333.83
2022-08-07T05:08:59.761Z,102333.34
2022-08-07T05:09:06.299Z,102334.52
2022-08-07T05:09:46.157Z,102334.34
2022-08-07T05:10:13.624Z,102330.66
2022-08-07T05:10:45.753Z,102334.20
2022-08-07T05:11:19.138Z,102335.22
2022-08-07T05:11:57.578Z,102335.34
2022-08-07T05:12:27.033Z,102334.66
2022-08-07T05:13:09.979Z,102335.50
2022-08-07T05:14:53.904Z,102335.86
2022-08-07T05:14:55.448Z,102335.50
2022-08-07T05:14:55.988Z,102336.50
2022-08-07T05:15:23.160Z,102334.38
2022-08-07T05:15:54.386Z,102335.05
2022-08-07T05:16:24.805Z,102330.33
2022-08-07T05:16:55.488Z,102335.03
2022-08-07T05:17:25.914Z,102331.33
2022-08-07T05:18:01.596Z,102333.55
2022-08-07T05:18:36.563Z,102331.16
2022-08-07T05:19:07.152Z,102329.83
2022-08-07T05:19:44.252Z,102333.02
2022-08-07T05:20:13.259Z,102334.34
2022-08-07T05:20:43.998Z,102334.33
2022-08-07T05:21:14.837Z,102333.81
2022-08-07T05:21:59.836Z,102336.64
2022-08-07T05:22:27.632Z,102334.61
2022-08-07T05:22:55.901Z,102336.94
2022-08-07T05:23:30.153Z,102336.11
2022-08-07T05:24:01.413Z,102337.47
2022-08-07T05:24:39.606Z,102340.70
2022-08-07T05:25:08.710Z,102335.80
2022-08-07T05:26:13.805Z,102340.00
2022-08-07T05:26:24.204Z,102339.68
2022-08-07T05:26:53.122Z,102342.70
2022-08-07T05:28:02.835Z,102342.38
2022-08-07T05:28:03.013Z,102340.70
2022-08-07T05:28:35.007Z,102338.14
2022-08-07T05:29:05.427Z,102338.84
2022-08-07T05:29:48.009Z,102340.02
2022-08-07T05:30:11.811Z,102342.20
2022-08-07T05:30:43.225Z,102343.41
2022-08-07T05:31:17.426Z,102346.98
2022-08-07T05:31:52.823Z,102346.13
2022-08-07T05:32:23.166Z,102343.91
2022-08-07T05:32:54.225Z,102345.77
2022-08-07T05:33:24.775Z,102347.46
2022-08-07T05:34:04.443Z,102344.58
2022-08-07T05:34:31.717Z,102348.08
2022-08-07T05:35:04.057Z,102347.89
2022-08-07T05:35:41.702Z,102349.09
2022-08-07T05:36:12.261Z,102350.57
2022-08-07T05:36:48.890Z,102346.97
2022-08-07T05:37:25.100Z,102351.53
2022-08-07T05:38:09.066Z,102350.53
2022-08-07T05:38:59.607Z,102345.16
2022-08-07T05:39:16.012Z,102343.53
2022-08-07T05:40:04.961Z,102341.52
2022-08-07T05:40:18.743Z,102346.56
2022-08-07T05:40:51.636Z,102341.66
2022-08-07T05:41:22.258Z,102342.02
2022-08-07T05:42:02.350Z,102347.36
2022-08-07T05:42:34.304Z,102342.62
2022-08-07T05:43:04.026Z,102347.02
2022-08-07T05:44:06.743Z,102344.64
2022-08-07T05:44:14.676Z,102345.04
2022-08-07T05:44:46.504Z,102345.73
2022-08-07T05:45:26.344Z,102346.64
2022-08-07T05:45:56.467Z,102346.77
2022-08-07T05:46:26.950Z,102347.42
2022-08-07T05:47:00.321Z,102345.55
2022-08-07T05:47:38.335Z,102348.59
2022-08-07T05:48:06.972Z,102346.06
2022-08-07T05:48:37.475Z,102346.41
2022-08-07T05:49:14.378Z,102351.47
2022-08-07T05:49:44.917Z,102349.31
2022-08-07T05:50:15.336Z,102345.94
2022-08-07T05:50:45.758Z,102346.06
2022-08-07T05:51:16.880Z,102349.44
2022-08-07T05:51:47.722Z,102349.73
2022-08-07T05:52:20.126Z,102346.72
2022-08-07T05:52:50.867Z,102349.59
2022-08-07T05:54:11.924Z,102346.41
2022-08-07T05:54:13.096Z,102347.58
2022-08-07T05:54:53.401Z,102347.77
2022-08-07T05:55:10.743Z,102348.25
2022-08-07T05:56:02.207Z,102347.06
2022-08-07T05:56:17.056Z,102350.91
2022-08-07T05:56:48.147Z,102350.56
2022-08-07T05:57:21.870Z,102352.88
2022-08-07T05:57:52.301Z,102356.77
2022-08-07T05:58:36.118Z,102354.59
2022-08-07T05:58:58.040Z,102348.19
2022-08-07T05:59:28.913Z,102352.03
2022-08-07T06:00:04.234Z,102353.87
2022-08-07T06:00:34.653Z,102351.86
2022-08-07T06:01:05.982Z,102349.35
2022-08-07T06:01:40.998Z,102349.22
2022-08-07T06:02:12.033Z,102352.23
2022-08-07T06:02:42.519Z,102351.22
2022-08-07T06:03:12.949Z,102349.67
2022-08-07T06:03:57.127Z,102347.98
2022-08-07T06:04:20.205Z,102345.08
2022-08-07T06:04:50.801Z,102349.97
2022-08-07T06:05:25.810Z,102350.99
2022-08-07T06:05:56.822Z,102349.16
2022-08-07T06:06:29.714Z,102348.98
2022-08-07T06:07:03.788Z,102344.59
2022-08-07T06:08:29.404Z,102344.58
2022-08-07T06:08:30.270Z,102350.18
2022-08-07T06:08:45.626Z,102343.19
2022-08-07T06:09:17.108Z,102346.80
2022-08-07T06:10:04.349Z,102346.80
2022-08-07T06:10:22.852Z,102349.48
2022-08-07T06:10:54.931Z,102342.52
2022-08-07T06:11:25.439Z,102341.69
2022-08-07T06:11:56.130Z,102347.46
2022-08-07T06:12:31.656Z,102351.85
2022-08-07T06:13:02.236Z,102351.85
2022-08-07T06:14:12.999Z,102350.12
2022-08-07T06:14:13.784Z,102345.91
2022-08-07T06:14:43.901Z,102344.88
2022-08-07T06:15:19.938Z,102347.23
2022-08-07T06:15:50.705Z,102348.41
2022-08-07T06:16:21.123Z,102350.95
2022-08-07T06:16:56.319Z,102352.98